createdAt,value
2018-03-02T00:00:41.779Z,48.50
2018-03-02T00:02:45.247Z,48.80
2018-03-02T00:04:46.403Z,48.00
2018-03-02T00:06:47.456Z,48.50
2018-03-02T00:08:48.411Z,48.20
2018-03-02T00:10:49.374Z,48.00
2018-03-02T00:12:50.448Z,48.30
2018-03-02T00:14:51.488Z,48.50
2018-03-02T00:16:52.580Z,48.60
2018-03-02T00:18:53.620Z,48.10
2018-03-02T00:20:54.640Z,48.50
2018-03-02T00:22:56.779Z,48.30
2018-03-02T00:24:58.807Z,49.30
2018-03-02T00:26:59.859Z,48.20
2018-03-02T00:31:38.451Z,48.70
2018-03-02T00:33:39.567Z,48.90
2018-03-02T00:35:40.624Z,49.20
2018-03-02T00:37:41.648Z,49.20
2018-03-02T00:39:43.161Z,49.10
2018-03-02T00:41:44.258Z,49.20
2018-03-02T00:43:46.209Z,49.20
2018-03-02T00:45:47.232Z,49.30
2018-03-02T00:47:48.231Z,49.00
2018-03-02T00:49:49.275Z,49.10
2018-03-02T00:51:50.579Z,49.30
2018-03-02T00:53:51.608Z,49.20
2018-03-02T00:55:52.628Z,50.10
2018-03-02T00:58:04.992Z,49.60
2018-03-02T01:00:06.025Z,49.50
2018-03-02T01:02:07.042Z,49.50
2018-03-02T01:04:08.140Z,49.90
2018-03-02T01:06:09.139Z,49.80
2018-03-02T01:08:11.029Z,50.20
2018-03-02T01:10:12.086Z,49.90
2018-03-02T01:12:13.097Z,50.00
2018-03-02T01:14:14.098Z,49.90
2018-03-02T01:16:15.088Z,50.00
2018-03-02T01:18:16.111Z,50.20
2018-03-02T01:20:17.124Z,50.10
2018-03-02T01:22:18.148Z,50.50
2018-03-02T01:24:19.144Z,50.20
2018-03-02T01:26:20.206Z,50.50
2018-03-02T01:28:23.518Z,50.90
2018-03-02T01:30:24.635Z,50.40
2018-03-02T01:32:25.701Z,50.90
2018-03-02T01:34:26.908Z,49.70
2018-03-02T01:36:27.937Z,51.30
2018-03-02T01:38:28.913Z,50.40
2018-03-02T01:40:29.984Z,50.60
2018-03-02T01:42:31.058Z,51.20
2018-03-02T01:44:32.064Z,50.80
2018-03-02T01:46:33.201Z,52.00
2018-03-02T01:48:34.271Z,51.00
2018-03-02T01:50:35.268Z,51.10
2018-03-02T01:52:36.519Z,51.50
2018-03-02T01:54:37.543Z,51.10
2018-03-02T01:56:38.552Z,52.00
2018-03-02T01:58:39.545Z,51.80
2018-03-02T02:00:40.743Z,51.90
2018-03-02T02:02:41.757Z,51.10
2018-03-02T02:04:43.521Z,51.90
2018-03-02T02:06:44.507Z,51.90
2018-03-02T02:08:45.916Z,51.90
2018-03-02T02:10:46.943Z,52.40
2018-03-02T02:12:47.951Z,51.80
2018-03-02T02:14:48.994Z,51.90
2018-03-02T02:16:50.024Z,51.90
2018-03-02T02:18:51.011Z,52.10
2018-03-02T02:20:52.123Z,52.70
2018-03-02T02:22:53.116Z,52.10
2018-03-02T02:24:54.120Z,52.70
2018-03-02T02:26:55.090Z,52.40
2018-03-02T02:28:56.301Z,52.20
2018-03-02T02:30:57.631Z,52.50
2018-03-02T02:32:58.674Z,53.00
2018-03-02T02:34:59.717Z,52.50
2018-03-02T02:37:00.778Z,52.60
2018-03-02T02:39:02.384Z,52.60
2018-03-02T02:41:03.433Z,53.10
2018-03-02T02:43:04.564Z,53.10
2018-03-02T02:45:05.583Z,54.60
2018-03-02T02:47:06.621Z,53.40
2018-03-02T02:49:07.637Z,54.20
2018-03-02T02:51:08.609Z,53.70
2018-03-02T02:53:09.634Z,53.70
2018-03-02T02:55:10.643Z,53.00
2018-03-02T02:57:11.726Z,53.40
2018-03-02T02:59:12.841Z,53.80
2018-03-02T03:01:13.861Z,53.60
2018-03-02T03:03:14.887Z,53.40
2018-03-02T03:05:15.910Z,53.70
2018-03-02T03:07:16.920Z,54.00
2018-03-02T03:09:18.709Z,54.60
2018-03-02T03:11:19.716Z,53.40
2018-03-02T03:13:20.707Z,54.60
2018-03-02T03:15:21.671Z,53.90
2018-03-02T03:17:22.691Z,54.00
2018-03-02T03:19:23.682Z,54.50
2018-03-02T03:21:24.761Z,54.50
2018-03-02T03:23:25.793Z,54.90
2018-03-02T03:25:26.791Z,54.50
2018-03-02T03:27:28.183Z,54.40
2018-03-02T03:29:30.028Z,55.50
2018-03-02T03:31:31.073Z,54.60
2018-03-02T03:33:32.255Z,54.40
2018-03-02T03:35:33.312Z,55.00
2018-03-02T03:37:34.324Z,54.90
2018-03-02T03:39:35.282Z,54.90
2018-03-02T03:41:36.346Z,55.00
2018-03-02T03:43:37.502Z,55.70
2018-03-02T03:45:38.836Z,55.20
2018-03-02T03:47:39.915Z,56.30
2018-03-02T03:49:41.007Z,56.00
2018-03-02T03:51:42.040Z,56.30
2018-03-02T03:53:43.057Z,56.60
2018-03-02T03:55:44.779Z,57.20
2018-03-02T03:57:45.764Z,57.20
2018-03-02T03:59:46.744Z,57.50
2018-03-02T04:01:47.734Z,56.70
2018-03-02T04:03:48.728Z,57.20
2018-03-02T04:05:50.445Z,57.20
2018-03-02T04:07:51.548Z,56.60
2018-03-02T04:09:52.567Z,57.20
2018-03-02T04:11:53.579Z,57.70
2018-03-02T04:13:54.657Z,57.10
2018-03-02T04:15:55.657Z,57.80
2018-03-02T04:17:56.918Z,57.30
2018-03-02T04:19:57.960Z,57.00
2018-03-02T04:21:59.236Z,57.40
2018-03-02T04:24:00.272Z,57.80
2018-03-02T04:26:01.244Z,58.00
2018-03-02T04:28:02.236Z,58.20
2018-03-02T04:30:03.257Z,57.90
2018-03-02T04:32:04.255Z,57.50
2018-03-02T04:34:08.688Z,58.60
2018-03-02T04:36:09.795Z,58.20
2018-03-02T04:38:10.789Z,58.10
2018-03-02T04:40:11.950Z,58.20
2018-03-02T04:42:12.920Z,58.00
2018-03-02T04:44:13.922Z,58.40
2018-03-02T04:46:14.920Z,58.50
2018-03-02T04:48:17.067Z,58.40
2018-03-02T04:50:18.205Z,58.90
2018-03-02T04:52:19.286Z,58.50
2018-03-02T04:54:20.609Z,58.70
2018-03-02T04:56:21.693Z,59.10
2018-03-02T04:58:22.701Z,58.30
2018-03-02T05:00:26.312Z,58.90
2018-03-02T05:02:27.376Z,59.60
2018-03-02T05:04:28.362Z,59.40
2018-03-02T05:06:29.584Z,59.40
2018-03-02T05:08:30.680Z,58.90
2018-03-02T05:10:32.340Z,59.60
2018-03-02T05:12:33.336Z,59.00
2018-03-02T05:14:34.495Z,59.50
2018-03-02T05:16:35.475Z,59.90
2018-03-02T05:18:37.039Z,60.30
2018-03-02T05:20:38.353Z,60.50
2018-03-02T05:22:39.392Z,60.00
2018-03-02T05:24:40.876Z,60.80
2018-03-02T05:26:41.923Z,60.90
2018-03-02T05:28:45.289Z,61.80
2018-03-02T05:33:10.740Z,60.40
2018-03-02T05:35:11.791Z,61.10
2018-03-02T05:37:12.812Z,61.10
2018-03-02T05:39:13.808Z,61.00
2018-03-02T05:41:17.647Z,61.50
2018-03-02T05:43:18.729Z,62.00
2018-03-02T05:45:19.799Z,62.10
2018-03-02T05:47:20.829Z,61.30
2018-03-02T05:49:21.845Z,61.80
2018-03-02T05:51:22.844Z,61.70
2018-03-02T05:53:24.641Z,62.00
2018-03-02T05:55:25.675Z,62.00
2018-03-02T05:57:26.672Z,62.20
2018-03-02T05:59:27.660Z,61.40
2018-03-02T06:01:29.207Z,62.90
2018-03-02T06:03:30.266Z,62.20
2018-03-02T06:05:31.287Z,63.40
2018-03-02T06:12:48.219Z,62.10
2018-03-02T06:14:49.216Z,62.20
2018-03-02T06:16:50.225Z,61.80
2018-03-02T06:18:51.219Z,62.40
2018-03-02T06:20:52.216Z,61.60
2018-03-02T06:22:53.233Z,61.30
2018-03-02T06:24:54.518Z,61.50
2018-03-02T06:26:56.272Z,62.70
2018-03-02T06:28:57.384Z,61.60
2018-03-02T06:30:59.122Z,61.20
2018-03-02T06:33:00.208Z,61.20
2018-03-02T06:35:01.208Z,60.60
2018-03-02T06:37:02.259Z,60.00
2018-03-02T06:39:21.843Z,60.10
2018-03-02T06:41:22.857Z,60.10
2018-03-02T06:43:23.810Z,59.60
2018-03-02T06:45:24.926Z,60.30
2018-03-02T06:47:25.963Z,59.40
2018-03-02T06:49:26.991Z,58.90
2018-03-02T06:51:28.106Z,57.30
2018-03-02T06:53:29.292Z,57.80
2018-03-02T06:55:30.451Z,56.90
2018-03-02T06:57:31.514Z,56.20
2018-03-02T06:59:32.530Z,55.20
2018-03-02T07:01:33.501Z,53.70
2018-03-02T07:03:34.453Z,53.00
2018-03-02T07:05:35.692Z,52.30
2018-03-02T07:07:36.818Z,52.00
2018-03-02T07:09:37.817Z,51.20
2018-03-02T07:11:38.801Z,52.20
2018-03-02T07:13:41.803Z,51.80
2018-03-02T07:15:43.588Z,50.00
2018-03-02T07:17:44.619Z,49.70
2018-03-02T07:19:45.625Z,50.40
2018-03-02T07:21:47.880Z,50.10
2018-03-02T07:23:49.974Z,49.80
2018-03-02T07:25:51.098Z,49.40
2018-03-02T07:27:52.184Z,48.40
2018-03-02T07:29:54.629Z,46.70
2018-03-02T07:31:55.728Z,45.60
2018-03-02T07:33:56.937Z,46.80
2018-03-02T07:35:58.349Z,46.60
2018-03-02T07:37:59.583Z,44.10
2018-03-02T07:40:00.656Z,43.90
2018-03-02T07:42:01.763Z,43.30
2018-03-02T07:44:02.737Z,43.50
2018-03-02T07:46:03.745Z,42.70
2018-03-02T07:48:04.765Z,41.10
2018-03-02T07:50:05.856Z,40.60
2018-03-02T07:52:06.945Z,40.40
2018-03-02T07:54:07.995Z,40.40
2018-03-02T07:56:09.064Z,40.20
2018-03-02T07:58:10.079Z,40.40
2018-03-02T08:00:13.271Z,39.70
2018-03-02T08:02:47.975Z,39.50
2018-03-02T08:07:02.183Z,41.20
2018-03-02T08:09:04.191Z,38.70
2018-03-02T08:11:11.745Z,40.20
2018-03-02T08:15:52.823Z,38.50
2018-03-02T08:17:57.761Z,37.70
2018-03-02T08:32:46.985Z,38.00
2018-03-02T08:34:48.920Z,37.00
2018-03-02T08:36:51.788Z,36.90
2018-03-02T08:38:52.960Z,36.30
2018-03-02T08:40:54.116Z,36.40
2018-03-02T08:42:55.459Z,36.10
2018-03-02T08:44:57.471Z,35.70
2018-03-02T08:49:19.901Z,34.60
2018-03-02T08:51:21.460Z,34.50
2018-03-02T08:55:37.550Z,34.80
2018-03-02T08:57:38.574Z,36.10
2018-03-02T08:59:40.345Z,35.50
2018-03-02T09:01:42.326Z,35.30
2018-03-02T09:03:43.429Z,35.40
2018-03-02T09:05:44.367Z,36.50
2018-03-02T09:07:45.352Z,35.90
2018-03-02T09:09:49.399Z,36.80
2018-03-02T09:11:50.488Z,36.80
2018-03-02T09:14:20.552Z,38.40
2018-03-02T09:16:21.611Z,37.80
2018-03-02T09:18:22.743Z,37.60
2018-03-02T09:20:24.456Z,37.70
2018-03-02T09:22:25.448Z,37.70
2018-03-02T09:24:27.207Z,35.70
2018-03-02T09:26:28.248Z,35.50
2018-03-02T09:28:29.198Z,35.40
2018-03-02T09:30:37.264Z,32.80
2018-03-02T09:32:38.454Z,32.80
2018-03-02T09:34:41.783Z,32.80
2018-03-02T09:36:42.975Z,32.80
2018-03-02T09:38:49.506Z,30.50
2018-03-02T09:43:18.443Z,31.60
2018-03-02T09:45:19.450Z,30.80
2018-03-02T09:47:20.501Z,29.70
2018-03-02T09:49:22.371Z,28.90
2018-03-02T09:51:42.810Z,29.00
2018-03-02T09:53:44.408Z,29.10
2018-03-02T09:55:45.409Z,30.00
2018-03-02T09:57:46.715Z,29.30
2018-03-02T09:59:52.715Z,29.30
2018-03-02T10:01:53.881Z,29.60
2018-03-02T10:03:54.887Z,29.20
2018-03-02T10:05:55.892Z,28.90
2018-03-02T10:07:56.914Z,28.00
2018-03-02T10:09:57.917Z,29.10
2018-03-02T10:11:58.968Z,27.80
2018-03-02T10:13:59.976Z,28.30
2018-03-02T10:16:01.025Z,28.30
2018-03-02T10:18:02.011Z,28.20
2018-03-02T10:20:03.008Z,27.30
2018-03-02T10:22:03.976Z,27.10
2018-03-02T10:24:05.071Z,27.80
2018-03-02T10:26:06.070Z,27.80
2018-03-02T10:28:07.131Z,27.20
2018-03-02T10:30:08.235Z,25.90
2018-03-02T10:32:09.194Z,26.80
2018-03-02T10:34:10.159Z,26.10
2018-03-02T10:36:11.163Z,28.10
2018-03-02T10:38:12.251Z,27.20
2018-03-02T10:40:13.289Z,27.60
2018-03-02T10:42:14.292Z,26.90
2018-03-02T10:44:16.659Z,25.10
2018-03-02T10:46:17.725Z,25.10
2018-03-02T10:48:19.255Z,26.00
2018-03-02T10:50:20.303Z,25.70
2018-03-02T10:52:23.490Z,25.60
2018-03-02T10:54:25.255Z,25.50
2018-03-02T10:56:26.687Z,26.00
2018-03-02T10:58:28.129Z,25.50
2018-03-02T11:00:35.391Z,25.30
2018-03-02T11:02:42.387Z,24.60
2018-03-02T11:04:46.326Z,25.90
2018-03-02T11:06:49.208Z,26.50
2018-03-02T11:08:50.202Z,24.90
2018-03-02T11:10:53.569Z,25.40
2018-03-02T11:12:56.722Z,25.50
2018-03-02T11:14:57.797Z,25.10
2018-03-02T11:16:58.844Z,25.10
2018-03-02T11:18:59.806Z,25.20
2018-03-02T11:21:00.772Z,24.90
2018-03-02T11:25:12.713Z,25.20
2018-03-02T11:27:13.877Z,25.40
2018-03-02T11:29:15.791Z,25.70
2018-03-02T11:31:16.852Z,23.90
2018-03-02T11:33:17.830Z,24.40
2018-03-02T11:35:20.439Z,24.70
2018-03-02T11:37:21.506Z,24.10
2018-03-02T11:39:22.461Z,24.70
2018-03-02T11:41:23.686Z,24.90
2018-03-02T11:43:24.752Z,24.00
2018-03-02T11:45:25.710Z,24.10
2018-03-02T11:47:26.718Z,23.90
2018-03-02T11:49:28.211Z,24.40
2018-03-02T11:51:29.199Z,24.20
2018-03-02T11:53:30.623Z,23.60
2018-03-02T11:55:31.683Z,22.70
2018-03-02T11:57:32.892Z,23.30
2018-03-02T11:59:34.615Z,24.30
2018-03-02T12:01:35.584Z,24.20
2018-03-02T12:03:37.286Z,23.80
2018-03-02T12:05:38.976Z,22.60
2018-03-02T12:07:40.074Z,23.50
2018-03-02T12:09:41.472Z,23.20
2018-03-02T12:11:42.558Z,23.10
2018-03-02T12:13:44.788Z,23.60
2018-03-02T12:15:53.875Z,23.40
2018-03-02T12:17:58.408Z,24.50
2018-03-02T12:19:59.473Z,24.50
2018-03-02T12:22:00.477Z,23.40
2018-03-02T12:24:01.485Z,23.30
2018-03-02T12:26:03.280Z,22.70
2018-03-02T12:28:04.699Z,22.60
2018-03-02T12:30:05.750Z,23.00
2018-03-02T12:32:06.766Z,23.20
2018-03-02T12:34:08.078Z,23.10
2018-03-02T12:36:09.144Z,22.20
2018-03-02T12:38:10.107Z,22.90
2018-03-02T12:42:36.439Z,20.90
2018-03-02T12:44:38.309Z,20.30
2018-03-02T12:46:39.223Z,21.80
2018-03-02T12:48:41.412Z,22.10
2018-03-02T12:50:42.692Z,21.90
2018-03-02T12:52:43.682Z,22.40
2018-03-02T12:54:44.877Z,23.10
2018-03-02T12:56:46.742Z,22.40
2018-03-02T12:58:48.231Z,22.60
2018-03-02T13:00:49.223Z,21.20
2018-03-02T13:02:50.185Z,22.40
2018-03-02T13:04:51.179Z,21.30
2018-03-02T13:06:52.138Z,21.40
2018-03-02T13:08:53.218Z,21.50
2018-03-02T13:10:54.476Z,21.70
2018-03-02T13:12:55.457Z,22.30
2018-03-02T13:14:56.437Z,22.10
2018-03-02T13:16:57.412Z,21.70
2018-03-02T13:18:58.641Z,21.40
2018-03-02T13:20:59.660Z,21.20
2018-03-02T13:23:00.609Z,21.90
2018-03-02T13:25:01.556Z,21.90
2018-03-02T13:27:15.001Z,20.80
2018-03-02T13:29:16.179Z,21.70
2018-03-02T13:31:18.207Z,21.50
2018-03-02T13:33:31.493Z,22.40
2018-03-02T13:35:33.552Z,22.80
2018-03-02T13:37:34.708Z,21.80
2018-03-02T13:39:52.430Z,22.60
2018-03-02T13:42:00.420Z,22.70
2018-03-02T13:44:01.481Z,22.60
2018-03-02T13:46:02.538Z,22.10
2018-03-02T13:48:33.441Z,22.10
2018-03-02T13:50:34.488Z,22.40
2018-03-02T13:52:35.456Z,23.10
2018-03-02T13:54:36.546Z,22.80
2018-03-02T13:56:49.910Z,23.00
2018-03-02T13:58:51.095Z,22.70
2018-03-02T14:00:52.336Z,22.60
2018-03-02T14:03:05.744Z,21.90
2018-03-02T14:05:06.830Z,21.60
2018-03-02T14:07:07.845Z,22.60
2018-03-02T14:09:08.856Z,22.60
2018-03-02T14:11:09.824Z,22.80
2018-03-02T14:13:11.624Z,22.80
2018-03-02T14:15:12.627Z,22.80
2018-03-02T14:17:14.878Z,23.40
2018-03-02T14:19:15.838Z,23.20
2018-03-02T14:21:20.163Z,22.70
2018-03-02T14:23:22.824Z,22.40
2018-03-02T14:25:23.791Z,22.20
2018-03-02T14:27:25.132Z,23.30
2018-03-02T14:29:26.201Z,23.90
2018-03-02T14:31:27.267Z,24.10
2018-03-02T14:33:28.221Z,23.50
2018-03-02T14:35:29.268Z,23.30
2018-03-02T14:37:30.260Z,23.90
2018-03-02T14:39:31.297Z,23.60
2018-03-02T14:41:32.869Z,23.70
2018-03-02T14:43:34.028Z,23.80
2018-03-02T14:45:35.089Z,24.30
2018-03-02T14:47:37.248Z,24.30
2018-03-02T14:49:38.629Z,24.10
2018-03-02T14:51:39.662Z,23.30
2018-03-02T14:53:41.724Z,24.00
2018-03-02T14:55:43.092Z,25.20
2018-03-02T14:57:44.265Z,25.00
2018-03-02T14:59:45.230Z,25.20
2018-03-02T15:01:46.373Z,25.20
2018-03-02T15:03:47.343Z,25.30
2018-03-02T15:05:48.428Z,25.50
2018-03-02T15:07:49.363Z,25.50
2018-03-02T15:10:05.020Z,25.00
2018-03-02T15:12:06.446Z,24.90
2018-03-02T15:14:07.520Z,25.80
2018-03-02T15:16:08.598Z,25.60
2018-03-02T15:18:11.072Z,25.80
2018-03-02T15:22:18.675Z,25.90
2018-03-02T15:24:19.876Z,25.80
2018-03-02T15:26:22.138Z,26.40
2018-03-02T15:28:23.325Z,26.30
2018-03-02T15:30:24.492Z,27.10
2018-03-02T15:32:25.575Z,26.60
2018-03-02T15:34:26.640Z,27.20
2018-03-02T15:36:27.923Z,26.90
2018-03-02T15:38:29.803Z,27.10
2018-03-02T15:40:30.855Z,27.00
2018-03-02T15:42:31.914Z,27.70
2018-03-02T15:44:32.940Z,28.10
2018-03-02T15:46:33.912Z,28.40
2018-03-02T15:48:34.932Z,28.20
2018-03-02T15:50:35.921Z,28.40
2018-03-02T15:52:37.268Z,28.60
2018-03-02T15:54:39.364Z,28.80
2018-03-02T15:56:40.800Z,28.70
2018-03-02T15:58:41.816Z,29.40
2018-03-02T16:00:42.835Z,30.00
2018-03-02T16:02:43.800Z,29.50
2018-03-02T16:04:45.562Z,30.00
2018-03-02T16:06:46.507Z,30.00
2018-03-02T16:08:47.469Z,29.80
2018-03-02T16:10:48.406Z,31.00
2018-03-02T16:12:52.895Z,31.00
2018-03-02T16:14:53.885Z,30.90
2018-03-02T16:16:55.469Z,31.70
2018-03-02T16:18:56.629Z,31.90
2018-03-02T16:26:14.247Z,33.90
2018-03-02T16:28:15.325Z,34.00
2018-03-02T16:30:16.434Z,34.80
2018-03-02T16:32:17.616Z,34.80
2018-03-02T16:34:18.805Z,34.60
2018-03-02T16:36:20.002Z,35.00
2018-03-02T16:38:21.154Z,35.60
2018-03-02T16:40:22.292Z,35.70
2018-03-02T16:42:28.027Z,36.70
2018-03-02T16:44:29.193Z,36.40
2018-03-02T16:46:30.210Z,36.40
2018-03-02T16:48:31.148Z,36.40
2018-03-02T16:50:32.096Z,36.70
2018-03-02T16:59:47.703Z,37.30
2018-03-02T17:01:49.020Z,37.70
2018-03-02T17:03:56.488Z,37.70
2018-03-02T17:06:00.337Z,37.80
2018-03-02T17:08:22.975Z,37.40
2018-03-02T17:10:38.894Z,38.00
2018-03-02T17:12:40.203Z,38.60
2018-03-02T17:14:41.305Z,38.40
2018-03-02T17:16:57.474Z,38.40
2018-03-02T17:21:37.056Z,38.60
2018-03-02T17:23:38.328Z,38.70
2018-03-02T17:25:39.332Z,38.90
2018-03-02T17:27:40.303Z,38.80
2018-03-02T17:29:42.120Z,38.70
2018-03-02T17:31:45.528Z,38.70
2018-03-02T17:33:46.538Z,38.40
2018-03-02T17:35:47.582Z,38.30
2018-03-02T17:37:48.536Z,39.10
2018-03-02T17:39:50.388Z,38.90
2018-03-02T17:41:51.409Z,39.20
2018-03-02T17:43:52.720Z,38.60
2018-03-02T17:45:53.996Z,39.50
2018-03-02T18:11:44.277Z,39.70
2018-03-02T18:13:49.798Z,40.00
2018-03-02T18:15:50.805Z,40.10
2018-03-02T18:17:52.524Z,40.50
2018-03-02T18:19:57.968Z,40.50
2018-03-02T18:24:50.620Z,39.80
2018-03-02T18:26:51.734Z,39.80
2018-03-02T18:28:53.093Z,40.30
2018-03-02T18:30:55.412Z,40.70
2018-03-02T18:32:56.927Z,40.60
2018-03-02T18:34:58.068Z,41.00
2018-03-02T18:36:59.075Z,41.30
2018-03-02T18:39:00.208Z,41.40
2018-03-02T18:41:01.321Z,41.70
2018-03-02T18:43:03.194Z,42.10
2018-03-02T18:45:04.420Z,42.00
2018-03-02T18:47:05.469Z,42.10
2018-03-02T18:49:21.248Z,41.70
2018-03-02T18:51:22.286Z,42.10
2018-03-02T18:53:23.280Z,42.30
2018-03-02T18:55:24.281Z,42.20
2018-03-02T19:00:28.476Z,42.10
2018-03-02T19:02:51.051Z,42.10
2018-03-02T19:04:52.427Z,42.10
2018-03-02T19:06:53.415Z,42.10
2018-03-02T19:11:31.746Z,42.10
2018-03-02T19:13:32.776Z,42.30
2018-03-02T19:15:33.790Z,42.00
2018-03-02T19:20:04.598Z,41.80
2018-03-02T19:22:05.711Z,41.80
2018-03-02T19:24:06.827Z,42.10
2018-03-02T19:35:50.626Z,42.00
2018-03-02T19:37:52.350Z,42.50
2018-03-02T19:39:57.150Z,42.00
2018-03-02T19:41:58.471Z,41.90
2018-03-02T19:44:00.065Z,41.90
2018-03-02T19:46:01.183Z,41.60
2018-03-02T19:48:03.347Z,42.00
2018-03-02T19:50:04.453Z,41.10
2018-03-02T19:52:25.678Z,42.00
2018-03-02T19:54:26.692Z,41.90
2018-03-02T19:56:27.647Z,42.20
2018-03-02T19:58:29.448Z,42.20
2018-03-02T20:00:30.901Z,41.90
2018-03-02T20:02:31.942Z,42.20
2018-03-02T20:04:32.912Z,41.80
2018-03-02T20:06:55.529Z,42.40
2018-03-02T20:11:26.861Z,42.90
2018-03-02T20:13:44.384Z,41.70
2018-03-02T20:15:46.095Z,42.40
2018-03-02T20:17:51.536Z,42.20
2018-03-02T20:19:55.615Z,42.80
2018-03-02T20:34:57.150Z,43.10
2018-03-02T20:39:42.368Z,43.80
2018-03-02T20:41:50.498Z,43.00
2018-03-02T20:44:52.006Z,44.30
2018-03-02T20:51:51.396Z,44.40
2018-03-02T20:53:52.416Z,44.40
2018-03-02T20:55:53.452Z,44.30
2018-03-02T21:00:22.423Z,44.20
2018-03-02T21:02:23.472Z,45.70
2018-03-02T21:04:50.260Z,45.20
2018-03-02T21:06:51.314Z,45.10
2018-03-02T21:14:20.913Z,44.90
2018-03-02T21:16:21.917Z,44.90
2018-03-02T21:18:22.919Z,46.00
2018-03-02T21:22:52.413Z,46.00
2018-03-02T21:27:02.451Z,45.40
2018-03-02T21:31:41.810Z,46.00
2018-03-02T21:33:42.954Z,46.50
2018-03-02T21:35:44.061Z,45.80
2018-03-02T21:37:45.190Z,46.10
2018-03-02T21:40:06.556Z,46.00
2018-03-02T21:42:20.575Z,45.80
2018-03-02T21:44:25.738Z,46.40
2018-03-02T21:46:29.326Z,46.70
2018-03-02T21:48:30.670Z,45.90
2018-03-02T21:50:35.704Z,46.30
2018-03-02T21:52:38.798Z,46.40
2018-03-02T21:55:04.901Z,45.90
2018-03-02T22:01:30.281Z,46.80
2018-03-02T22:03:31.504Z,46.80
2018-03-02T22:05:32.525Z,46.10
2018-03-02T22:07:33.486Z,47.10
2018-03-02T22:09:34.906Z,46.70
2018-03-02T22:11:35.991Z,47.00
2018-03-02T22:13:37.083Z,47.50
2018-03-02T22:15:38.096Z,47.10
2018-03-02T22:17:39.866Z,47.40
2018-03-02T22:19:40.942Z,47.10
2018-03-02T22:21:41.979Z,47.10
2018-03-02T22:23:43.067Z,47.10
2018-03-02T22:28:11.586Z,47.40
2018-03-02T22:30:12.550Z,47.80
2018-03-02T22:32:15.092Z,47.00
2018-03-02T22:39:14.662Z,47.40
2018-03-02T22:49:08.838Z,49.00
2018-03-02T22:53:41.559Z,48.10
2018-03-02T23:03:35.773Z,48.80
2018-03-02T23:05:36.839Z,48.50
2018-03-02T23:14:40.829Z,49.20
2018-03-02T23:32:32.831Z,49.20
2018-03-02T23:37:11.547Z,50.20
2018-03-02T23:39:13.547Z,50.20
2018-03-02T23:41:25.653Z,49.90
2018-03-02T23:43:36.090Z,50.00
2018-03-02T23:48:03.873Z,50.10
2018-03-02T23:50:04.940Z,50.40
2018-03-02T23:52:13.601Z,50.70
2018-03-02T23:54:38.044Z,50.60
2018-03-02T23:56:50.070Z,50.00
2018-03-02T23:58:51.077Z,50.80
